Time;durP1;ratioP1;P1;durP2;ratioP2;P2;SDS_P1;SDS_P2;PMS_P1;PMS_P2;Temp;Humidity;BMP_temperature;BMP_pressure;BME280_temperature;BME280_humidity;BME280_pressure;Samples;Min_cycle;Max_cycle;Signal;HPM_P1;HPM_P2
2022/05/03 00:01:10;;;;;;;;;19.20;16.40;;;;;;;;5033800;28;8758;-65
2022/05/03 00:04:06;;;;;;;;;15.80;15.00;;;;;;;;5017682;28;8762;-65
2022/05/03 00:06:55;;;;;;;;;6.80;6.20;;;;;;;;5020759;28;8992;-64
2022/05/03 00:09:35;;;;;;;;;18.00;17.00;;;;;;;;5006519;28;8768;-64
2022/05/03 00:12:03;;;;;;;;;15.60;14.40;;;;;;;;5020001;28;8808;-65
2022/05/03 00:14:46;;;;;;;;;17.60;15.40;;;;;;;;5037033;28;9516;-65
2022/05/03 00:17:15;;;;;;;;;16.80;14.20;;;;;;;;5038803;28;8796;-65
2022/05/03 00:19:41;;;;;;;;;19.60;15.40;;;;;;;;5019685;28;8745;-65
2022/05/03 00:22:08;;;;;;;;;17.60;16.60;;;;;;;;5020012;28;8784;-65
2022/05/03 00:24:35;;;;;;;;;17.40;16.60;;;;;;;;5036886;28;8749;-65
2022/05/03 00:27:02;;;;;;;;;21.60;16.40;;;;;;;;5037235;28;9906;-65
2022/05/03 00:29:29;;;;;;;;;20.20;18.60;;;;;;;;5036618;28;8862;-64
2022/05/03 00:31:57;;;;;;;;;14.40;14.00;;;;;;;;5036063;28;8780;-65
2022/05/03 00:34:23;;;;;;;;;20.20;17.20;;;;;;;;5019510;28;8826;-64
2022/05/03 00:36:50;;;;;;;;;22.80;19.80;;;;;;;;5018843;28;8770;-65
2022/05/03 00:39:17;;;;;;;;;20.40;18.80;;;;;;;;5036120;28;8733;-63
2022/05/03 00:42:07;;;;;;;;;18.80;18.80;;;;;;;;5036148;28;8785;-65
2022/05/03 00:44:55;;;;;;;;;21.00;18.20;;;;;;;;5011929;28;8777;-64
2022/05/03 00:47:27;;;;;;;;;19.80;18.60;;;;;;;;5017930;28;8768;-64
2022/05/03 00:49:58;;;;;;;;;17.00;15.20;;;;;;;;5017838;28;8781;-64
2022/05/03 00:52:28;;;;;;;;;22.25;19.50;;;;;;;;4999794;28;8780;-64
2022/05/03 00:55:04;;;;;;;;;22.80;19.40;;;;;;;;5017760;28;8939;-65
2022/05/03 00:57:37;;;;;;;;;13.00;12.60;;;;;;;;5017888;28;8781;-64
2022/05/03 01:00:07;;;;;;;;;18.40;17.60;;;;;;;;5035978;28;9497;-64
2022/05/03 01:02:54;;;;;;;;;17.80;15.80;;;;;;;;5035676;28;8777;-64
2022/05/03 01:05:21;;;;;;;;;20.40;17.60;;;;;;;;4996476;28;8785;-64
2022/05/03 01:08:17;;;;;;;;;21.40;17.80;;;;;;;;5017976;28;8851;-64
2022/05/03 01:10:47;;;;;;;;;17.20;15.60;;;;;;;;4966293;28;8850;-64
2022/05/03 01:13:30;;;;;;;;;17.75;15.50;;;;;;;;5018585;28;8806;-64
2022/05/03 01:16:04;;;;;;;;;19.40;17.00;;;;;;;;5016783;28;8767;-65
2022/05/03 01:18:37;;;;;;;;;20.20;16.00;;;;;;;;4998533;28;8838;-64
2022/05/03 01:21:11;;;;;;;;;20.20;15.60;;;;;;;;5016773;28;8857;-64
2022/05/03 01:23:51;;;;;;;;;17.80;16.20;;;;;;;;5014966;28;8821;-64
2022/05/03 01:26:29;;;;;;;;;18.60;17.00;;;;;;;;5016686;28;8747;-63
2022/05/03 01:29:02;;;;;;;;;21.40;14.80;;;;;;;;5016611;28;8743;-64
2022/05/03 01:31:29;;;;;;;;;18.00;15.40;;;;;;;;5015853;28;8747;-64
2022/05/03 01:33:59;;;;;;;;;23.40;17.80;;;;;;;;5018327;28;8773;-65
2022/05/03 01:36:29;;;;;;;;;19.60;16.80;;;;;;;;5014746;28;8801;-64
2022/05/03 01:39:02;;;;;;;;;20.00;17.00;;;;;;;;5004749;28;8793;-64
2022/05/03 01:41:29;;;;;;;;;19.00;17.80;;;;;;;;4996237;28;8781;-64
2022/05/03 01:44:15;;;;;;;;;17.40;15.00;;;;;;;;4995976;28;8753;-64
2022/05/03 01:46:41;;;;;;;;;17.40;16.80;;;;;;;;4995208;28;8762;-64
2022/05/03 01:52:13;;;;;;;;;19.40;15.60;;;;;;;;4996791;28;8761;-65
2022/05/03 01:54:39;;;;;;;;;18.20;17.40;;;;;;;;5012268;28;8857;-65
2022/05/03 01:57:18;;;;;;;;;20.20;20.00;;;;;;;;5020623;28;8771;-65
2022/05/03 02:00:03;;;;;;;;;18.40;17.40;;;;;;;;5036329;28;8772;-65
2022/05/03 02:02:48;;;;;;;;;19.60;17.60;;;;;;;;5016019;28;8775;-65
2022/05/03 02:05:38;;;;;;;;;20.60;19.00;;;;;;;;5019574;28;8751;-65
2022/05/03 02:08:06;;;;;;;;;19.00;18.00;;;;;;;;5003125;28;8885;-65
2022/05/03 02:10:33;;;;;;;;;19.80;18.60;;;;;;;;4998208;28;8742;-64
2022/05/03 02:13:12;;;;;;;;;18.60;15.00;;;;;;;;4999985;28;8754;-64
2022/05/03 02:15:39;;;;;;;;;15.40;12.80;;;;;;;;4998969;28;8920;-65
2022/05/03 02:18:11;;;;;;;;;20.40;16.80;;;;;;;;4998345;28;8789;-65
2022/05/03 02:20:45;;;;;;;;;18.60;17.00;;;;;;;;4997695;28;8851;-65
2022/05/03 02:23:30;;;;;;;;;19.80;15.80;;;;;;;;5004882;28;8798;-65
2022/05/03 02:26:12;;;;;;;;;11.40;10.80;;;;;;;;5019033;28;8751;-65
2022/05/03 02:28:57;;;;;;;;;17.60;17.60;;;;;;;;5016502;28;8767;-64
2022/05/03 02:31:43;;;;;;;;;16.80;16.80;;;;;;;;5032325;28;9149;-64
2022/05/03 02:34:32;;;;;;;;;20.20;18.20;;;;;;;;5018843;28;8786;-64
2022/05/03 02:37:13;;;;;;;;;18.60;14.60;;;;;;;;5011702;28;8771;-64
2022/05/03 02:39:47;;;;;;;;;16.40;16.40;;;;;;;;5033377;28;8803;-64
2022/05/03 02:42:14;;;;;;;;;18.00;16.80;;;;;;;;5018642;28;8771;-64
2022/05/03 02:44:41;;;;;;;;;17.20;14.00;;;;;;;;5018598;28;8783;-65
2022/05/03 02:47:13;;;;;;;;;19.60;19.60;;;;;;;;5017851;28;8783;-66
2022/05/03 02:49:42;;;;;;;;;15.60;14.40;;;;;;;;5015675;28;8770;-67
2022/05/03 02:52:15;;;;;;;;;18.20;15.00;;;;;;;;5016812;28;8784;-67
2022/05/03 02:55:00;;;;;;;;;15.40;14.20;;;;;;;;5010105;28;8787;-66
2022/05/03 02:57:27;;;;;;;;;15.00;14.40;;;;;;;;5018768;28;8766;-67
2022/05/03 03:03:03;;;;;;;;;15.80;14.20;;;;;;;;5018259;28;9415;-64
2022/05/03 03:05:30;;;;;;;;;18.60;13.40;;;;;;;;4987008;28;8778;-65
2022/05/03 03:08:03;;;;;;;;;15.80;14.00;;;;;;;;5020403;28;9436;-66
2022/05/03 03:10:44;;;;;;;;;13.00;11.60;;;;;;;;5037448;28;8766;-65
2022/05/03 03:13:11;;;;;;;;;13.80;12.00;;;;;;;;5038920;28;8772;-65
2022/05/03 03:15:42;;;;;;;;;15.80;14.20;;;;;;;;5014490;28;8829;-66
2022/05/03 03:18:13;;;;;;;;;18.00;15.80;;;;;;;;5018132;28;8798;-66
2022/05/03 03:20:43;;;;;;;;;22.40;15.40;;;;;;;;5018102;28;8837;-64
2022/05/03 03:23:10;;;;;;;;;12.80;12.80;;;;;;;;5015342;28;8989;-66
2022/05/03 03:25:37;;;;;;;;;18.20;13.20;;;;;;;;5017885;28;8784;-65
2022/05/03 03:28:04;;;;;;;;;16.40;14.00;;;;;;;;5001824;28;8787;-65
2022/05/03 03:30:31;;;;;;;;;21.40;15.00;;;;;;;;4996687;28;8919;-64
2022/05/03 03:32:58;;;;;;;;;15.00;14.40;;;;;;;;4996533;28;8765;-64
2022/05/03 03:35:25;;;;;;;;;17.40;15.60;;;;;;;;4997853;28;8781;-64
2022/05/03 03:37:52;;;;;;;;;17.80;16.60;;;;;;;;4996266;28;8777;-64
2022/05/03 03:40:20;;;;;;;;;19.75;16.75;;;;;;;;4999336;28;8741;-62
2022/05/03 03:42:47;;;;;;;;;19.20;15.60;;;;;;;;5030205;28;8868;-63
2022/05/03 03:45:14;;;;;;;;;19.75;18.00;;;;;;;;4999520;28;8750;-63
2022/05/03 03:47:41;;;;;;;;;19.50;17.75;;;;;;;;4997637;28;8870;-64
2022/05/03 03:50:08;;;;;;;;;16.80;15.80;;;;;;;;4999935;28;8966;-64
2022/05/03 03:52:35;;;;;;;;;23.20;16.40;;;;;;;;4997264;28;8738;-64
2022/05/03 03:55:06;;;;;;;;;19.40;16.60;;;;;;;;4978624;28;8772;-64
2022/05/03 03:57:32;;;;;;;;;16.00;14.80;;;;;;;;4978869;28;8885;-68
2022/05/03 03:59:59;;;;;;;;;21.60;17.80;;;;;;;;5000293;28;8763;-66
2022/05/03 04:02:27;;;;;;;;;19.80;18.60;;;;;;;;4975381;28;8854;-72
2022/05/03 04:04:54;;;;;;;;;19.40;18.00;;;;;;;;4976425;28;8854;-66
2022/05/03 04:07:20;;;;;;;;;17.40;14.80;;;;;;;;4978093;28;8835;-66
2022/05/03 04:09:47;;;;;;;;;14.60;12.20;;;;;;;;5017856;28;8744;-70
2022/05/03 04:12:14;;;;;;;;;20.60;17.20;;;;;;;;5036929;28;8752;-66
2022/05/03 04:14:41;;;;;;;;;20.20;18.80;;;;;;;;5052615;28;8806;-67
2022/05/03 04:17:08;;;;;;;;;18.50;16.75;;;;;;;;5036433;28;8776;-72
2022/05/03 04:19:35;;;;;;;;;20.20;17.00;;;;;;;;5036577;28;8855;-71
2022/05/03 04:22:12;;;;;;;;;22.80;19.20;;;;;;;;5036011;28;8775;-62
2022/05/03 04:24:40;;;;;;;;;21.60;18.00;;;;;;;;5008274;28;8780;-69
2022/05/03 04:27:07;;;;;;;;;15.40;14.80;;;;;;;;4996587;28;8788;-73
2022/05/03 04:29:34;;;;;;;;;20.40;17.20;;;;;;;;5001811;28;8897;-68
2022/05/03 04:32:00;;;;;;;;;18.20;17.20;;;;;;;;5016040;28;8789;-68
2022/05/03 04:34:28;;;;;;;;;20.20;16.20;;;;;;;;5014577;28;9602;-64
2022/05/03 04:36:55;;;;;;;;;17.40;15.60;;;;;;;;5015280;28;8901;-67
2022/05/03 04:39:21;;;;;;;;;23.20;20.40;;;;;;;;4998361;28;8753;-70
2022/05/03 04:41:48;;;;;;;;;18.40;17.00;;;;;;;;5009391;28;8789;-57
2022/05/03 04:44:15;;;;;;;;;18.40;14.80;;;;;;;;4994777;28;8765;-54
2022/05/03 04:46:41;;;;;;;;;24.00;19.40;;;;;;;;4994543;28;8773;-70
2022/05/03 04:49:08;;;;;;;;;19.40;18.40;;;;;;;;4995407;28;8761;-69
2022/05/03 04:51:35;;;;;;;;;18.80;17.60;;;;;;;;4993814;28;8745;-57
2022/05/03 04:54:02;;;;;;;;;22.20;19.80;;;;;;;;5006480;28;8751;-67
2022/05/03 04:56:28;;;;;;;;;12.20;12.20;;;;;;;;5014034;28;8762;-70
2022/05/03 04:58:55;;;;;;;;;15.20;14.20;;;;;;;;5014566;28;8766;-60
2022/05/03 05:01:22;;;;;;;;;23.25;20.00;;;;;;;;5014268;28;8844;-62
2022/05/03 05:03:49;;;;;;;;;21.40;18.20;;;;;;;;5013590;28;8770;-71
2022/05/03 05:06:16;;;;;;;;;19.50;17.50;;;;;;;;5012986;28;8759;-67
2022/05/03 05:08:43;;;;;;;;;21.00;18.75;;;;;;;;5004470;28;8785;-62
2022/05/03 05:11:10;;;;;;;;;18.20;18.20;;;;;;;;4992778;28;9435;-68
2022/05/03 05:13:37;;;;;;;;;19.40;18.00;;;;;;;;4993017;28;8814;-63
2022/05/03 05:16:04;;;;;;;;;25.25;20.00;;;;;;;;5010356;28;8842;-67
2022/05/03 05:18:31;;;;;;;;;16.80;16.00;;;;;;;;4993945;28;8769;-66
2022/05/03 05:20:58;;;;;;;;;12.00;11.00;;;;;;;;4996993;28;9414;-61
2022/05/03 05:23:25;;;;;;;;;13.40;12.40;;;;;;;;5003699;28;8901;-70
2022/05/03 05:25:51;;;;;;;;;20.40;18.40;;;;;;;;5036061;28;8828;-68
2022/05/03 05:28:19;;;;;;;;;18.00;15.80;;;;;;;;5019038;28;8772;-62
2022/05/03 05:30:46;;;;;;;;;22.60;19.60;;;;;;;;5015798;28;8759;-67
2022/05/03 05:33:12;;;;;;;;;16.80;16.00;;;;;;;;5014585;28;9463;-63
2022/05/03 05:35:42;;;;;;;;;23.20;21.20;;;;;;;;5030842;28;8806;-68
2022/05/03 05:38:09;;;;;;;;;23.50;19.50;;;;;;;;5011385;28;8883;-66
2022/05/03 05:40:38;;;;;;;;;20.25;20.25;;;;;;;;4999473;28;8750;-67
2022/05/03 05:43:05;;;;;;;;;25.00;22.25;;;;;;;;4999278;28;8796;-68
2022/05/03 05:45:32;;;;;;;;;24.75;20.50;;;;;;;;4999883;28;8753;-68
2022/05/03 05:47:58;;;;;;;;;23.50;21.75;;;;;;;;4998222;28;8856;-66
2022/05/03 05:50:25;;;;;;;;;25.00;21.00;;;;;;;;4998166;28;9619;-68
2022/05/03 05:55:37;;;;;;;;;24.80;21.20;;;;;;;;5024493;28;8775;-64
2022/05/03 05:58:04;;;;;;;;;20.00;19.60;;;;;;;;5033750;28;8764;-70
2022/05/03 06:00:31;;;;;;;;;21.60;19.80;;;;;;;;5018287;28;8779;-68
2022/05/03 06:03:04;;;;;;;;;19.75;18.75;;;;;;;;5020641;28;9456;-71
2022/05/03 06:05:31;;;;;;;;;21.75;21.00;;;;;;;;5021518;28;8844;-67
2022/05/03 06:07:58;;;;;;;;;24.00;21.25;;;;;;;;5014896;28;8777;-70
2022/05/03 06:10:26;;;;;;;;;20.00;17.75;;;;;;;;4996565;28;8774;-66
2022/05/03 06:12:53;;;;;;;;;21.75;20.00;;;;;;;;4999497;28;9410;-67
2022/05/03 06:15:19;;;;;;;;;20.40;18.60;;;;;;;;4998697;28;8878;-64
2022/05/03 06:17:46;;;;;;;;;21.50;18.50;;;;;;;;4998714;28;8788;-70
2022/05/03 06:20:13;;;;;;;;;24.50;22.00;;;;;;;;4999611;28;8866;-64
2022/05/03 06:22:40;;;;;;;;;25.25;20.50;;;;;;;;4999706;28;8737;-68
2022/05/03 06:25:08;;;;;;;;;27.50;22.25;;;;;;;;5018674;28;8767;-67
2022/05/03 06:27:36;;;;;;;;;23.50;23.00;;;;;;;;5018727;28;8759;-70
2022/05/03 06:30:04;;;;;;;;;30.25;26.00;;;;;;;;5017975;28;8759;-66
2022/05/03 06:32:30;;;;;;;;;22.00;20.50;;;;;;;;5032212;28;8830;-67
2022/05/03 06:34:57;;;;;;;;;21.50;21.50;;;;;;;;5016542;28;8817;-71
2022/05/03 06:37:24;;;;;;;;;23.00;21.00;;;;;;;;5018163;28;9298;-65
2022/05/03 06:39:51;;;;;;;;;25.75;21.75;;;;;;;;4997192;28;8745;-71
2022/05/03 06:42:18;;;;;;;;;23.20;21.20;;;;;;;;4997556;28;8835;-64
2022/05/03 06:44:46;;;;;;;;;22.60;22.60;;;;;;;;4998457;28;8777;-63
2022/05/03 06:47:13;;;;;;;;;20.60;18.80;;;;;;;;4980331;28;8804;-71
2022/05/03 06:49:39;;;;;;;;;21.00;21.00;;;;;;;;4996794;28;9398;-67
2022/05/03 06:52:06;;;;;;;;;22.25;20.00;;;;;;;;4998332;28;8757;-71
2022/05/03 06:54:34;;;;;;;;;24.75;20.50;;;;;;;;5013555;28;8885;-67
2022/05/03 06:57:00;;;;;;;;;21.50;19.25;;;;;;;;5018011;28;8738;-69
2022/05/03 06:59:27;;;;;;;;;17.00;15.50;;;;;;;;5031903;28;8763;-71
2022/05/03 07:01:54;;;;;;;;;15.25;13.25;;;;;;;;5033827;28;8821;-69
2022/05/03 07:04:21;;;;;;;;;14.25;12.75;;;;;;;;5034122;28;8769;-74
2022/05/03 07:06:47;;;;;;;;;15.00;15.00;;;;;;;;5020934;28;8760;-77
2022/05/03 07:09:14;;;;;;;;;21.25;18.50;;;;;;;;5009885;28;8752;-72
2022/05/03 07:11:41;;;;;;;;;18.75;18.00;;;;;;;;4997310;28;8786;-69
2022/05/03 07:14:08;;;;;;;;;19.75;19.25;;;;;;;;4997691;28;8880;-69
2022/05/03 07:16:34;;;;;;;;;22.50;21.25;;;;;;;;4998204;28;9446;-66
2022/05/03 07:24:31;;;;;;;;;14.00;13.50;;;;;;;;5014177;28;8731;-65
2022/05/03 07:26:57;;;;;;;;;20.20;18.00;;;;;;;;5033484;28;8754;-67
2022/05/03 07:29:24;;;;;;;;;15.50;14.25;;;;;;;;5017707;28;8751;-67
2022/05/03 07:31:51;;;;;;;;;17.00;16.60;;;;;;;;5018093;28;8771;-69
2022/05/03 07:34:18;;;;;;;;;17.50;15.00;;;;;;;;5017275;28;8743;-66
2022/05/03 07:36:44;;;;;;;;;20.50;17.00;;;;;;;;5033280;28;8821;-68
2022/05/03 07:39:11;;;;;;;;;16.00;16.00;;;;;;;;5004584;28;8729;-67
2022/05/03 07:41:38;;;;;;;;;20.50;18.25;;;;;;;;4981078;28;8750;-64
2022/05/03 07:44:05;;;;;;;;;21.75;17.75;;;;;;;;4998325;28;8838;-67
2022/05/03 07:46:31;;;;;;;;;24.00;20.00;;;;;;;;4998209;28;8717;-66
2022/05/03 07:49:01;;;;;;;;;23.80;20.60;;;;;;;;4997316;28;8932;-68
2022/05/03 07:51:28;;;;;;;;;23.25;20.00;;;;;;;;4997782;28;8895;-67
2022/05/03 07:53:55;;;;;;;;;22.80;20.20;;;;;;;;4991765;28;8942;-68
2022/05/03 07:56:21;;;;;;;;;22.25;18.25;;;;;;;;5017779;28;8892;-69
2022/05/03 07:58:48;;;;;;;;;21.25;19.50;;;;;;;;5016207;28;8848;-66
2022/05/03 08:01:15;;;;;;;;;19.50;16.50;;;;;;;;5017527;28;8763;-69
2022/05/03 08:03:42;;;;;;;;;20.00;17.25;;;;;;;;5016378;28;8775;-64
2022/05/03 08:06:08;;;;;;;;;19.00;18.25;;;;;;;;5017873;28;8890;-68
2022/05/03 08:08:35;;;;;;;;;23.75;19.00;;;;;;;;5009194;28;8785;-69
2022/05/03 08:11:03;;;;;;;;;19.00;15.25;;;;;;;;4996938;28;8807;-65
2022/05/03 08:13:33;;;;;;;;;21.75;18.75;;;;;;;;4997113;28;8917;-63
2022/05/03 08:15:59;;;;;;;;;23.25;18.75;;;;;;;;4996986;28;8772;-63
2022/05/03 08:18:26;;;;;;;;;13.75;12.00;;;;;;;;4997371;28;8815;-63
2022/05/03 08:20:53;;;;;;;;;9.00;7.00;;;;;;;;4997733;28;8756;-63
2022/05/03 08:23:20;;;;;;;;;21.75;18.00;;;;;;;;5002875;28;8814;-61
2022/05/03 08:25:47;;;;;;;;;20.00;17.25;;;;;;;;5017041;28;8764;-63
2022/05/03 08:28:14;;;;;;;;;17.25;17.00;;;;;;;;5015252;28;8759;-64
2022/05/03 08:30:41;;;;;;;;;22.20;19.60;;;;;;;;5027222;28;8783;-64
2022/05/03 08:33:08;;;;;;;;;21.25;20.25;;;;;;;;4994565;28;8801;-65
2022/05/03 08:35:35;;;;;;;;;19.00;19.00;;;;;;;;4996667;28;8829;-65
2022/05/03 08:43:31;;;;;;;;;26.50;19.25;;;;;;;;4977600;28;8760;-65
2022/05/03 08:45:58;;;;;;;;;23.50;21.50;;;;;;;;4979036;28;8744;-65
2022/05/03 08:48:27;;;;;;;;;25.50;21.00;;;;;;;;4996591;28;8780;-65
2022/05/03 08:50:54;;;;;;;;;22.50;20.25;;;;;;;;4999822;28;8820;-65
2022/05/03 08:53:21;;;;;;;;;22.25;18.50;;;;;;;;4982712;28;8794;-65
2022/05/03 08:55:50;;;;;;;;;23.00;20.50;;;;;;;;5028232;28;8890;-65
2022/05/03 08:58:18;;;;;;;;;23.25;19.25;;;;;;;;5019855;28;8859;-65
2022/05/03 09:00:45;;;;;;;;;22.25;20.50;;;;;;;;5035706;28;8767;-65
2022/05/03 09:03:12;;;;;;;;;23.75;22.00;;;;;;;;5036502;28;8761;-65
2022/05/03 09:05:39;;;;;;;;;20.75;20.50;;;;;;;;5036718;28;8869;-65
2022/05/03 09:08:08;;;;;;;;;20.50;19.50;;;;;;;;5015060;28;8783;-65
2022/05/03 09:10:38;;;;;;;;;18.25;17.00;;;;;;;;5002604;28;9438;-66
2022/05/03 09:13:18;;;;;;;;;24.00;22.75;;;;;;;;4996158;28;8742;-65
2022/05/03 09:15:50;;;;;;;;;23.00;21.75;;;;;;;;4997158;28;8783;-65
2022/05/03 09:18:21;;;;;;;;;24.25;20.75;;;;;;;;4995975;28;8781;-64
2022/05/03 09:23:49;;;;;;;;;25.75;23.00;;;;;;;;4989254;28;8788;-65
2022/05/03 09:26:16;;;;;;;;;24.50;21.75;;;;;;;;4977646;28;8768;-65
2022/05/03 09:28:46;;;;;;;;;25.25;24.00;;;;;;;;4977543;28;8732;-65
2022/05/03 09:31:13;;;;;;;;;22.25;20.50;;;;;;;;4994294;28;8980;-65
2022/05/03 09:33:39;;;;;;;;;18.75;17.50;;;;;;;;4997153;28;8808;-65
2022/05/03 09:36:10;;;;;;;;;25.50;21.50;;;;;;;;5012053;28;8816;-65
2022/05/03 09:38:49;;;;;;;;;19.25;17.00;;;;;;;;5003705;28;8807;-66
2022/05/03 09:41:16;;;;;;;;;23.00;19.25;;;;;;;;5016840;28;8782;-66
2022/05/03 09:44:01;;;;;;;;;22.00;21.25;;;;;;;;5015474;28;8747;-65
2022/05/03 09:46:31;;;;;;;;;16.75;15.75;;;;;;;;5016653;28;8735;-65
2022/05/03 09:48:58;;;;;;;;;23.25;20.25;;;;;;;;5032136;28;8769;-65
2022/05/03 09:51:25;;;;;;;;;30.25;25.75;;;;;;;;5016577;28;8846;-65
2022/05/03 09:53:58;;;;;;;;;25.25;22.50;;;;;;;;5006108;28;8802;-65
2022/05/03 09:56:26;;;;;;;;;25.50;22.50;;;;;;;;4989033;28;8814;-65
2022/05/03 09:58:56;;;;;;;;;23.00;21.75;;;;;;;;5004376;28;9409;-65
2022/05/03 10:01:23;;;;;;;;;29.00;25.75;;;;;;;;4996975;28;8742;-65
2022/05/03 10:03:50;;;;;;;;;27.75;26.25;;;;;;;;4977612;28;8777;-65
2022/05/03 10:06:17;;;;;;;;;30.25;29.25;;;;;;;;4977476;28;8732;-65
2022/05/03 10:08:46;;;;;;;;;29.00;28.00;;;;;;;;4986607;28;9419;-66
2022/05/03 10:11:13;;;;;;;;;36.50;31.75;;;;;;;;5014352;28;8790;-65
2022/05/03 10:13:40;;;;;;;;;40.75;32.00;;;;;;;;5016351;28;8791;-65
2022/05/03 10:21:37;;;;;;;;;43.50;28.25;;;;;;;;5015652;28;8896;-65
2022/05/03 10:24:07;;;;;;;;;32.25;27.50;;;;;;;;5031745;28;8822;-65
2022/05/03 10:26:52;;;;;;;;;36.50;31.50;;;;;;;;5019770;28;8869;-65
2022/05/03 10:29:18;;;;;;;;;36.75;31.25;;;;;;;;5020386;28;8751;-64
2022/05/03 10:31:54;;;;;;;;;33.25;29.75;;;;;;;;5018836;28;8790;-65
2022/05/03 10:34:42;;;;;;;;;30.00;23.00;;;;;;;;5021062;28;8795;-65
2022/05/03 10:37:33;;;;;;;;;31.75;27.25;;;;;;;;5020885;28;8809;-66
2022/05/03 10:40:01;;;;;;;;;32.00;29.50;;;;;;;;4982431;28;8778;-66
2022/05/03 10:42:31;;;;;;;;;37.75;32.00;;;;;;;;5000184;28;8781;-65
2022/05/03 10:44:58;;;;;;;;;38.75;32.00;;;;;;;;5000286;28;8765;-65
2022/05/03 10:47:47;;;;;;;;;37.50;31.50;;;;;;;;4999872;28;8773;-66
2022/05/03 10:50:17;;;;;;;;;36.50;32.00;;;;;;;;4991167;28;8788;-65
2022/05/03 10:52:45;;;;;;;;;33.75;29.25;;;;;;;;5000831;28;8733;-65
2022/05/03 10:55:12;;;;;;;;;36.25;29.75;;;;;;;;5019764;28;8791;-65
2022/05/03 10:57:57;;;;;;;;;32.75;30.25;;;;;;;;5019247;28;8905;-65
2022/05/03 11:00:42;;;;;;;;;30.25;30.00;;;;;;;;5019566;28;8767;-65
2022/05/03 11:03:21;;;;;;;;;33.75;29.50;;;;;;;;5019334;28;8861;-66
2022/05/03 11:06:06;;;;;;;;;36.75;31.00;;;;;;;;5019249;28;8782;-65
2022/05/03 11:08:34;;;;;;;;;27.75;19.00;;;;;;;;5019262;28;8771;-65
2022/05/03 11:11:01;;;;;;;;;30.50;28.00;;;;;;;;5034075;28;8833;-66
2022/05/03 11:13:40;;;;;;;;;19.00;19.00;;;;;;;;5017350;28;8918;-65
2022/05/03 11:16:26;;;;;;;;;30.25;28.50;;;;;;;;5019843;28;8794;-65
2022/05/03 11:18:54;;;;;;;;;23.50;20.00;;;;;;;;5034539;28;8816;-65
2022/05/03 11:21:20;;;;;;;;;29.00;26.75;;;;;;;;5017455;28;8755;-65
2022/05/03 11:23:48;;;;;;;;;27.50;24.75;;;;;;;;5018580;28;8818;-65
2022/05/03 11:26:16;;;;;;;;;29.50;25.75;;;;;;;;5018597;28;8774;-65
2022/05/03 11:28:45;;;;;;;;;26.75;25.25;;;;;;;;5017443;28;8732;-65
2022/05/03 11:31:17;;;;;;;;;30.25;26.75;;;;;;;;5017975;28;8789;-66
2022/05/03 11:33:54;;;;;;;;;33.50;27.75;;;;;;;;5018417;28;9501;-65
2022/05/03 11:36:21;;;;;;;;;26.25;25.75;;;;;;;;5018088;28;8885;-65
2022/05/03 11:38:50;;;;;;;;;33.75;31.50;;;;;;;;5018322;28;8775;-66
2022/05/03 11:41:24;;;;;;;;;29.00;25.00;;;;;;;;5018385;28;8788;-64
2022/05/03 11:43:51;;;;;;;;;28.50;26.00;;;;;;;;5033909;28;9803;-66
2022/05/03 11:46:18;;;;;;;;;29.75;27.00;;;;;;;;5018722;28;8840;-64
2022/05/03 11:48:45;;;;;;;;;26.50;24.25;;;;;;;;5018679;28;8763;-65
2022/05/03 11:56:42;;;;;;;;;31.00;27.25;;;;;;;;5018186;28;8750;-66
2022/05/03 11:59:10;;;;;;;;;24.75;23.75;;;;;;;;5017832;28;8779;-66
2022/05/03 12:01:36;;;;;;;;;26.60;24.00;;;;;;;;5018846;28;8758;-66
2022/05/03 12:04:04;;;;;;;;;25.80;24.20;;;;;;;;5017788;28;8758;-66
2022/05/03 12:06:49;;;;;;;;;28.60;23.00;;;;;;;;5001026;28;8832;-65
2022/05/03 12:09:19;;;;;;;;;31.50;28.00;;;;;;;;5018794;28;8853;-66
2022/05/03 12:14:42;;;;;;;;;35.50;30.75;;;;;;;;5018487;28;8810;-66
2022/05/03 12:17:09;;;;;;;;;30.50;29.25;;;;;;;;5018590;28;8989;-65
2022/05/03 12:19:37;;;;;;;;;34.50;29.75;;;;;;;;5017166;28;8751;-66
2022/05/03 12:22:13;;;;;;;;;35.50;31.00;;;;;;;;5018350;28;8824;-66
2022/05/03 12:24:42;;;;;;;;;32.50;28.50;;;;;;;;5018415;28;8783;-66
2022/05/03 12:27:12;;;;;;;;;30.50;27.50;;;;;;;;5018628;28;8795;-66
2022/05/03 12:29:43;;;;;;;;;27.75;25.50;;;;;;;;5016661;28;8774;-65
2022/05/03 12:32:14;;;;;;;;;32.25;29.25;;;;;;;;5016337;28;8937;-65
2022/05/03 12:34:42;;;;;;;;;30.75;29.75;;;;;;;;5017467;28;8783;-66
2022/05/03 12:37:14;;;;;;;;;32.00;29.75;;;;;;;;5017966;28;8785;-66
2022/05/03 12:39:41;;;;;;;;;35.00;29.50;;;;;;;;5017250;28;8787;-65
2022/05/03 12:42:15;;;;;;;;;36.50;32.00;;;;;;;;5015984;28;9505;-65
2022/05/03 12:44:52;;;;;;;;;35.50;31.50;;;;;;;;5017489;28;8778;-66
2022/05/03 12:47:19;;;;;;;;;37.50;32.00;;;;;;;;5015901;28;8751;-65
2022/05/03 12:49:47;;;;;;;;;40.00;33.50;;;;;;;;5017283;28;8755;-66
2022/05/03 12:52:13;;;;;;;;;47.50;36.00;;;;;;;;5017769;28;8775;-66
2022/05/03 12:54:43;;;;;;;;;31.25;29.50;;;;;;;;5017162;28;8803;-66
2022/05/03 12:59:56;;;;;;;;;30.25;28.25;;;;;;;;5017524;28;8751;-66
2022/05/03 13:02:23;;;;;;;;;30.00;26.25;;;;;;;;5017009;28;9388;-65
2022/05/03 13:04:50;;;;;;;;;34.75;28.50;;;;;;;;5016044;28;8794;-66
2022/05/03 13:07:17;;;;;;;;;29.50;26.00;;;;;;;;5016187;28;8743;-62
2022/05/03 13:09:44;;;;;;;;;28.25;25.00;;;;;;;;5016721;28;8802;-66
2022/05/03 13:12:10;;;;;;;;;30.25;25.50;;;;;;;;5016789;28;8825;-66
2022/05/03 13:14:38;;;;;;;;;26.50;25.25;;;;;;;;5016620;28;8842;-66
2022/05/03 13:17:05;;;;;;;;;28.75;23.00;;;;;;;;5017096;28;8781;-66
2022/05/03 13:19:32;;;;;;;;;17.50;15.50;;;;;;;;5016800;28;8743;-65
2022/05/03 13:21:59;;;;;;;;;23.75;20.50;;;;;;;;5017187;28;8751;-66
2022/05/03 13:24:25;;;;;;;;;26.50;23.50;;;;;;;;5016747;28;8806;-65
2022/05/03 13:26:52;;;;;;;;;31.50;25.00;;;;;;;;5016811;28;9435;-65
2022/05/03 13:29:19;;;;;;;;;26.25;24.75;;;;;;;;5016647;28;8763;-64
2022/05/03 13:31:46;;;;;;;;;24.75;21.50;;;;;;;;5007936;28;8883;-66
2022/05/03 13:34:14;;;;;;;;;23.25;23.00;;;;;;;;5016106;28;8833;-65
2022/05/03 13:42:11;;;;;;;;;25.75;25.75;;;;;;;;5016742;28;8787;-65
2022/05/03 13:44:38;;;;;;;;;19.50;19.25;;;;;;;;5016819;28;8794;-65
2022/05/03 13:47:05;;;;;;;;;31.00;25.50;;;;;;;;5016997;28;8852;-65
2022/05/03 13:49:32;;;;;;;;;34.00;30.25;;;;;;;;5016833;28;12477;-65
2022/05/03 13:51:59;;;;;;;;;25.75;23.00;;;;;;;;5017476;28;8742;-65
2022/05/03 13:54:26;;;;;;;;;29.25;21.25;;;;;;;;5016176;28;8822;-65
2022/05/03 13:56:53;;;;;;;;;25.25;24.00;;;;;;;;5015200;28;8782;-65
2022/05/03 13:59:20;;;;;;;;;30.25;26.50;;;;;;;;5017236;28;8763;-66
2022/05/03 14:01:47;;;;;;;;;26.50;24.75;;;;;;;;5020338;28;8782;-65
2022/05/03 14:04:13;;;;;;;;;31.25;24.75;;;;;;;;5021000;28;8774;-65
2022/05/03 14:06:40;;;;;;;;;28.25;26.75;;;;;;;;5010225;28;8755;-65
2022/05/03 14:09:07;;;;;;;;;30.75;26.75;;;;;;;;5019316;28;8767;-65
2022/05/03 14:11:34;;;;;;;;;30.25;25.50;;;;;;;;5020363;28;8782;-66
2022/05/03 14:14:00;;;;;;;;;28.50;25.25;;;;;;;;5020862;28;9074;-65
2022/05/03 14:16:30;;;;;;;;;31.00;29.50;;;;;;;;5020928;28;8771;-64
2022/05/03 14:18:58;;;;;;;;;36.50;33.50;;;;;;;;5021357;28;8829;-65
2022/05/03 14:21:25;;;;;;;;;36.00;30.00;;;;;;;;5020206;28;8762;-65
2022/05/03 14:23:52;;;;;;;;;33.75;30.75;;;;;;;;5019013;28;8787;-65
2022/05/03 14:26:18;;;;;;;;;34.50;30.00;;;;;;;;5019915;28;8767;-64
2022/05/03 14:28:48;;;;;;;;;45.00;31.75;;;;;;;;5020476;28;8814;-67
2022/05/03 14:31:15;;;;;;;;;33.25;30.75;;;;;;;;5029079;28;8813;-65
2022/05/03 14:33:42;;;;;;;;;37.25;30.75;;;;;;;;5039735;28;8757;-65
2022/05/03 14:36:08;;;;;;;;;39.50;33.00;;;;;;;;5039357;28;8773;-65
2022/05/03 14:38:35;;;;;;;;;36.25;31.25;;;;;;;;5039330;28;8777;-65
2022/05/03 14:41:02;;;;;;;;;35.25;32.50;;;;;;;;5039667;28;8787;-65
2022/05/03 14:43:29;;;;;;;;;38.50;33.75;;;;;;;;5039265;28;8762;-65
2022/05/03 14:45:56;;;;;;;;;40.00;35.50;;;;;;;;5038841;28;8786;-65
2022/05/03 14:48:23;;;;;;;;;51.25;40.75;;;;;;;;5039061;28;8734;-64
2022/05/03 14:50:49;;;;;;;;;48.75;40.00;;;;;;;;5039206;28;8777;-65
2022/05/03 14:53:16;;;;;;;;;37.25;33.75;;;;;;;;5039089;28;8754;-65
2022/05/03 15:02:52;;;;;;;;;49.75;38.75;;;;;;;;5021544;28;8823;-65
2022/05/03 15:04:01;;;;;;;;;37.00;33.50;;;;;;;;5039443;28;8757;-65
2022/05/03 15:06:27;;;;;;;;;44.00;33.75;;;;;;;;5038763;28;8879;-65
2022/05/03 15:08:54;;;;;;;;;33.25;32.25;;;;;;;;5039086;28;8781;-65
2022/05/03 15:11:21;;;;;;;;;38.00;34.25;;;;;;;;5036912;28;8765;-65
2022/05/03 15:13:48;;;;;;;;;42.25;33.50;;;;;;;;5038820;28;8820;-65
2022/05/03 15:16:14;;;;;;;;;39.50;33.75;;;;;;;;5039404;28;8745;-65
2022/05/03 15:18:45;;;;;;;;;32.75;30.00;;;;;;;;5038832;28;8730;-65
2022/05/03 15:21:14;;;;;;;;;38.75;33.25;;;;;;;;5038933;28;8765;-65
2022/05/03 15:26:26;;;;;;;;;39.25;31.50;;;;;;;;5038604;28;8773;-64
2022/05/03 15:28:53;;;;;;;;;41.25;34.00;;;;;;;;5039193;28;8876;-65
2022/05/03 15:31:19;;;;;;;;;44.25;35.50;;;;;;;;5038750;28;8738;-65
2022/05/03 15:33:46;;;;;;;;;41.50;34.50;;;;;;;;5038404;28;8733;-65
2022/05/03 15:36:13;;;;;;;;;41.75;34.25;;;;;;;;5020771;28;8890;-65
2022/05/03 15:38:40;;;;;;;;;43.00;36.00;;;;;;;;5038023;28;8741;-65